createdAt,value
2018-06-13T00:01:59.908Z,63.57
2018-06-13T00:04:30.619Z,78.80
2018-06-13T00:07:01.338Z,60.50
2018-06-13T00:09:32.098Z,75.57
2018-06-13T00:12:02.650Z,79.43
2018-06-13T00:14:33.065Z,54.13
2018-06-13T00:17:03.518Z,58.27
2018-06-13T00:19:34.136Z,56.40
2018-06-13T00:22:04.327Z,67.70
2018-06-13T00:24:34.882Z,48.07
2018-06-13T00:27:05.600Z,49.50
2018-06-13T00:29:35.795Z,47.27
2018-06-13T00:32:06.458Z,40.50
2018-06-13T00:34:36.758Z,45.00
2018-06-13T00:37:08.387Z,48.73
2018-06-13T00:39:38.962Z,76.00
2018-06-13T00:42:09.288Z,52.33
2018-06-13T00:44:39.418Z,48.07
2018-06-13T00:47:09.696Z,44.93
2018-06-13T00:49:40.135Z,42.53
2018-06-13T00:52:10.243Z,57.97
2018-06-13T00:54:40.807Z,61.23
2018-06-13T00:57:11.147Z,75.53
2018-06-13T00:59:41.752Z,102.07
2018-06-13T01:02:12.412Z,58.37
2018-06-13T01:04:42.647Z,60.27
2018-06-13T01:07:12.803Z,88.43
2018-06-13T01:09:43.516Z,69.87
2018-06-13T01:12:13.703Z,82.47
2018-06-13T01:14:44.071Z,81.93
2018-06-13T01:17:14.875Z,66.47
2018-06-13T01:19:44.952Z,88.50
2018-06-13T01:22:15.267Z,44.33
2018-06-13T01:24:46.197Z,44.33
2018-06-13T01:27:16.515Z,48.70
2018-06-13T01:29:46.691Z,62.90
2018-06-13T01:32:16.813Z,65.90
2018-06-13T01:34:47.512Z,42.43
2018-06-13T01:37:17.983Z,69.40
2018-06-13T01:39:48.708Z,67.47
2018-06-13T01:42:19.031Z,135.20
2018-06-13T01:44:49.192Z,50.60
2018-06-13T01:47:19.317Z,73.50
2018-06-13T01:49:50.069Z,62.00
2018-06-13T01:52:20.685Z,50.80
2018-06-13T01:54:50.840Z,60.60
2018-06-13T01:57:20.980Z,54.73
2018-06-13T01:59:51.327Z,57.20
2018-06-13T02:02:21.402Z,68.53
2018-06-13T02:04:52.202Z,42.77
2018-06-13T02:07:22.392Z,60.90
2018-06-13T02:09:53.523Z,42.40
2018-06-13T02:12:24.430Z,51.67
2018-06-13T02:14:54.908Z,51.33
2018-06-13T02:17:25.517Z,40.23
2018-06-13T02:19:56.352Z,53.57
2018-06-13T02:22:27.012Z,53.03
2018-06-13T02:24:58.080Z,53.33
2018-06-13T02:27:28.301Z,39.17
2018-06-13T02:29:58.573Z,70.77
2018-06-13T02:32:28.954Z,39.63
2018-06-13T02:34:59.404Z,38.77
2018-06-13T02:37:29.944Z,57.10
2018-06-13T02:40:00.473Z,41.60
2018-06-13T02:42:31.366Z,33.97
2018-06-13T02:45:02.025Z,33.30
2018-06-13T02:47:33.704Z,29.87
2018-06-13T02:50:04.937Z,37.93
2018-06-13T02:52:36.454Z,36.43
2018-06-13T02:55:07.432Z,47.27
2018-06-13T02:57:37.640Z,41.97
2018-06-13T03:00:08.390Z,36.37
2018-06-13T03:02:38.724Z,50.57
2018-06-13T03:05:08.756Z,51.97
2018-06-13T03:07:39.265Z,36.97
2018-06-13T03:10:09.759Z,41.00
2018-06-13T03:12:40.142Z,59.07
2018-06-13T03:15:10.905Z,116.43
2018-06-13T03:17:41.131Z,39.17
2018-06-13T03:20:11.963Z,59.00
2018-06-13T03:22:42.803Z,50.53
2018-06-13T03:25:12.914Z,39.13
2018-06-13T03:27:43.684Z,46.73
2018-06-13T03:30:14.149Z,44.80
2018-06-13T03:32:44.340Z,73.83
2018-06-13T03:35:15.173Z,73.00
2018-06-13T03:37:46.280Z,50.30
2018-06-13T03:40:17.657Z,43.70
2018-06-13T03:42:48.134Z,62.57
2018-06-13T03:45:18.857Z,57.83
2018-06-13T03:47:49.794Z,41.40
2018-06-13T03:50:20.835Z,52.70
2018-06-13T03:52:57.461Z,38.60
2018-06-13T03:55:28.433Z,43.00
2018-06-13T03:58:00.862Z,34.43
2018-06-13T04:00:31.909Z,38.57
2018-06-13T04:03:02.787Z,43.27
2018-06-13T04:05:34.693Z,46.60
2018-06-13T04:08:06.141Z,50.27
2018-06-13T04:10:37.184Z,52.63
2018-06-13T04:13:08.653Z,47.73
2018-06-13T04:15:39.500Z,43.27
2018-06-13T04:18:10.588Z,46.83
2018-06-13T04:20:41.152Z,57.13
2018-06-13T04:23:11.686Z,41.23
2018-06-13T04:25:42.562Z,49.13
2018-06-13T04:28:13.676Z,43.23
2018-06-13T04:30:46.836Z,44.37
2018-06-13T04:33:21.529Z,41.20
2018-06-13T04:35:52.897Z,41.87
2018-06-13T04:38:23.468Z,47.33
2018-06-13T04:40:53.879Z,46.77
2018-06-13T04:43:24.319Z,42.67
2018-06-13T04:45:54.936Z,37.23
2018-06-13T04:48:32.619Z,39.93
2018-06-13T04:51:18.539Z,63.17
2018-06-13T04:53:49.902Z,59.53
2018-06-13T04:56:25.656Z,50.17
2018-06-13T04:58:56.646Z,39.83
2018-06-13T05:01:27.714Z,51.30
2018-06-13T05:03:58.802Z,42.00
2018-06-13T05:06:29.466Z,32.70
2018-06-13T05:09:00.132Z,45.50
2018-06-13T05:11:31.015Z,46.23
2018-06-13T05:14:01.927Z,41.90
2018-06-13T05:16:32.856Z,33.07
2018-06-13T05:19:04.519Z,32.67
2018-06-13T05:34:39.034Z,42.53
2018-06-13T05:37:09.822Z,31.07
2018-06-13T05:39:40.388Z,38.00
2018-06-13T05:42:10.946Z,46.50
2018-06-13T05:44:41.721Z,38.67
2018-06-13T05:47:12.058Z,42.83
2018-06-13T05:49:42.751Z,36.97
2018-06-13T05:52:13.085Z,34.27
2018-06-13T05:54:44.052Z,35.83
2018-06-13T05:57:14.620Z,32.17
2018-06-13T05:59:47.141Z,41.17
2018-06-13T06:02:18.252Z,36.43
2018-06-13T06:04:48.979Z,33.50
2018-06-13T06:07:19.620Z,37.30
2018-06-13T06:09:50.710Z,36.27
2018-06-13T06:12:21.550Z,45.33
2018-06-13T06:14:52.228Z,41.60
2018-06-13T06:17:22.596Z,35.63
2018-06-13T06:19:53.144Z,32.60
2018-06-13T06:22:23.705Z,42.13
2018-06-13T06:24:53.903Z,35.07
2018-06-13T06:27:24.458Z,34.37
2018-06-13T06:29:54.712Z,42.67
2018-06-13T06:32:25.430Z,37.67
2018-06-13T06:34:56.043Z,40.23
2018-06-13T06:37:27.234Z,33.57
2018-06-13T06:39:57.858Z,34.37
2018-06-13T06:42:28.451Z,40.23
2018-06-13T06:44:58.802Z,38.93
2018-06-13T06:47:29.527Z,43.07
2018-06-13T06:50:00.094Z,38.03
2018-06-13T06:52:30.893Z,36.77
2018-06-13T06:55:01.715Z,39.13
2018-06-13T06:57:32.502Z,48.10
2018-06-13T07:00:03.432Z,40.07
2018-06-13T07:02:34.123Z,40.87
2018-06-13T07:05:04.837Z,28.97
2018-06-13T07:07:36.061Z,27.07
2018-06-13T07:10:06.655Z,33.47
2018-06-13T07:12:36.939Z,29.70
2018-06-13T07:15:07.799Z,27.27
2018-06-13T07:17:38.277Z,29.07
2018-06-13T07:20:08.839Z,22.73
2018-06-13T07:22:39.131Z,28.43
2018-06-13T07:25:09.572Z,24.10
2018-06-13T07:27:40.132Z,20.43
2018-06-13T07:30:10.686Z,22.00
2018-06-13T07:32:41.059Z,19.63
2018-06-13T07:35:11.602Z,17.77
2018-06-13T07:37:43.295Z,17.97
2018-06-13T07:40:13.512Z,14.83
2018-06-13T07:42:44.109Z,13.20
2018-06-13T07:45:14.503Z,16.90
2018-06-13T07:47:44.938Z,14.30
2018-06-13T07:50:15.295Z,18.10
2018-06-13T07:52:45.972Z,16.57
2018-06-13T07:55:16.653Z,12.13
2018-06-13T07:57:47.256Z,15.97
2018-06-13T08:00:17.714Z,12.00
2018-06-13T08:02:48.047Z,12.30
2018-06-13T08:05:18.419Z,12.33
2018-06-13T08:07:48.978Z,11.33
2018-06-13T08:10:19.739Z,11.83
2018-06-13T08:12:50.194Z,9.17
2018-06-13T08:15:20.620Z,8.80
2018-06-13T08:17:51.014Z,12.23
2018-06-13T08:20:21.829Z,9.63
2018-06-13T08:22:52.039Z,9.00
2018-06-13T08:25:22.374Z,10.03
2018-06-13T08:27:52.666Z,7.60
2018-06-13T08:30:22.888Z,8.87
2018-06-13T08:32:53.130Z,10.03
2018-06-13T08:35:23.396Z,10.60
2018-06-13T08:37:53.634Z,18.03
2018-06-13T08:40:24.076Z,8.87
2018-06-13T08:42:54.443Z,13.70
2018-06-13T08:45:24.831Z,16.40
2018-06-13T08:47:55.479Z,13.97
2018-06-13T08:50:25.820Z,22.17
2018-06-13T08:52:56.171Z,17.20
2018-06-13T08:55:26.902Z,16.43
2018-06-13T08:57:57.659Z,18.40
2018-06-13T09:00:28.160Z,21.57
2018-06-13T09:02:58.372Z,18.27
2018-06-13T09:05:28.600Z,28.87
2018-06-13T09:08:01.230Z,23.07
2018-06-13T09:10:31.736Z,25.03
2018-06-13T09:13:02.199Z,21.20
2018-06-13T09:15:33.055Z,20.10
2018-06-13T09:18:03.498Z,23.00
2018-06-13T09:20:34.126Z,19.77
2018-06-13T09:23:04.818Z,18.43
2018-06-13T09:25:35.436Z,17.53
2018-06-13T09:28:06.180Z,24.50
2018-06-13T09:30:36.684Z,19.13
2018-06-13T09:33:08.724Z,20.07
2018-06-13T09:35:39.257Z,18.10
2018-06-13T09:38:09.953Z,14.87
2018-06-13T09:40:40.305Z,16.07
2018-06-13T09:43:10.881Z,15.53
2018-06-13T09:45:41.411Z,12.00
2018-06-13T09:48:11.986Z,12.73
2018-06-13T09:50:42.387Z,11.40
2018-06-13T09:53:12.949Z,13.97
2018-06-13T09:55:43.266Z,13.47
2018-06-13T09:58:13.652Z,12.20
2018-06-13T10:00:49.147Z,8.77
2018-06-13T10:03:19.941Z,14.00
2018-06-13T10:05:50.600Z,15.60
2018-06-13T10:08:21.340Z,14.30
2018-06-13T10:10:51.923Z,14.80
2018-06-13T10:13:22.852Z,13.60
2018-06-13T10:15:53.507Z,12.20
2018-06-13T10:18:24.278Z,13.33
2018-06-13T10:20:54.627Z,17.40
2018-06-13T10:23:25.043Z,14.20
2018-06-13T10:25:55.553Z,12.80
2018-06-13T10:28:26.095Z,16.90
2018-06-13T10:30:56.464Z,16.47
2018-06-13T10:33:26.663Z,14.00
2018-06-13T10:35:56.675Z,17.57
2018-06-13T10:38:28.125Z,15.07
2018-06-13T10:40:58.285Z,16.17
2018-06-13T10:43:28.744Z,14.37
2018-06-13T10:45:59.195Z,12.27
2018-06-13T10:48:29.682Z,13.97
2018-06-13T10:51:00.381Z,14.33
2018-06-13T10:53:30.618Z,12.47
2018-06-13T10:56:01.267Z,14.20
2018-06-13T10:58:31.669Z,11.20
2018-06-13T11:01:02.376Z,18.47
2018-06-13T11:03:32.758Z,13.00
2018-06-13T11:06:03.308Z,11.00
2018-06-13T11:08:33.581Z,12.77
2018-06-13T11:11:04.119Z,11.10
2018-06-13T11:13:34.192Z,12.40
2018-06-13T11:16:04.722Z,11.67
2018-06-13T11:18:35.492Z,14.23
2018-06-13T11:21:06.164Z,8.87
2018-06-13T11:23:36.551Z,12.80
2018-06-13T11:26:07.283Z,14.60
2018-06-13T11:28:37.742Z,11.07
2018-06-13T11:31:08.137Z,12.77
2018-06-13T11:33:38.887Z,12.03
2018-06-13T11:36:09.424Z,10.10
2018-06-13T11:38:39.936Z,8.90
2018-06-13T11:41:10.299Z,10.87
2018-06-13T11:43:40.685Z,9.83
2018-06-13T11:46:11.314Z,11.10
2018-06-13T11:48:41.974Z,11.93
2018-06-13T11:51:12.366Z,9.47
2018-06-13T11:53:42.782Z,11.53
2018-06-13T11:56:13.250Z,12.03
2018-06-13T11:58:43.829Z,11.63
2018-06-13T12:01:14.870Z,10.50
2018-06-13T12:03:45.238Z,9.90
2018-06-13T12:06:15.540Z,12.03
2018-06-13T12:08:46.383Z,10.70
2018-06-13T12:11:16.745Z,10.17
2018-06-13T12:13:47.362Z,8.97
2018-06-13T12:16:18.586Z,8.20
2018-06-13T12:18:48.882Z,9.77
2018-06-13T12:21:19.510Z,9.93
2018-06-13T12:23:49.933Z,10.37
2018-06-13T12:26:20.736Z,9.90
2018-06-13T12:28:51.353Z,8.63
2018-06-13T12:31:21.687Z,11.03
2018-06-13T12:33:52.102Z,10.63
2018-06-13T12:43:03.147Z,7.27
2018-06-13T16:08:09.400Z,8.67
2018-06-13T16:10:39.404Z,9.73
2018-06-13T16:13:11.373Z,8.37
2018-06-13T16:15:41.537Z,6.70
2018-06-13T16:18:12.143Z,9.27
2018-06-13T16:20:42.256Z,6.23
2018-06-13T16:23:12.330Z,9.60
2018-06-13T16:25:42.913Z,7.80
2018-06-13T16:28:13.062Z,6.93
2018-06-13T16:30:46.931Z,7.13
2018-06-13T16:33:17.242Z,8.33
2018-06-13T16:35:47.368Z,6.80
2018-06-13T16:38:17.979Z,11.97
2018-06-13T16:40:49.364Z,8.00
2018-06-13T16:43:21.011Z,8.00
2018-06-13T16:45:51.081Z,10.33
2018-06-13T16:48:21.538Z,8.67
2018-06-13T16:51:08.688Z,9.77
2018-06-13T16:54:10.742Z,6.90
2018-06-13T16:56:41.530Z,9.07
2018-06-13T16:59:12.416Z,9.20
2018-06-13T17:01:44.480Z,9.50
2018-06-13T17:04:14.920Z,11.07
2018-06-13T17:06:46.739Z,8.80
2018-06-13T17:09:17.748Z,9.00
2018-06-13T17:11:48.277Z,8.00
2018-06-13T17:14:19.689Z,12.00
2018-06-13T17:20:01.501Z,11.23
2018-06-13T17:22:32.025Z,11.23
2018-06-13T17:25:03.005Z,11.87
2018-06-13T17:27:33.443Z,11.30
2018-06-13T17:30:03.909Z,11.60
2018-06-13T17:32:35.941Z,7.67
2018-06-13T17:35:06.097Z,8.90
2018-06-13T17:37:36.284Z,9.87
2018-06-13T17:40:06.405Z,8.40
2018-06-13T17:42:36.545Z,10.17
2018-06-13T17:45:07.194Z,7.50
2018-06-13T17:47:37.696Z,11.27
2018-06-13T17:50:07.930Z,14.53
2018-06-13T17:52:38.697Z,8.33
2018-06-13T17:55:08.841Z,11.50
2018-06-13T17:57:40.983Z,7.50
2018-06-13T18:00:11.058Z,9.30
2018-06-13T18:02:41.628Z,8.13
2018-06-13T18:05:12.895Z,8.90
2018-06-13T18:07:43.029Z,10.63
2018-06-13T18:10:13.080Z,11.23
2018-06-13T18:12:43.252Z,7.60
2018-06-13T18:15:18.557Z,17.80
2018-06-13T18:17:49.487Z,8.13
2018-06-13T18:20:19.771Z,9.20
2018-06-13T18:25:59.936Z,11.93
2018-06-13T18:28:30.025Z,11.87
2018-06-13T18:31:18.119Z,10.03
2018-06-13T18:33:49.256Z,11.70
2018-06-13T18:36:19.724Z,11.90
2018-06-13T18:38:50.349Z,10.00
2018-06-13T18:41:45.835Z,9.83
2018-06-13T18:47:38.565Z,10.80
2018-06-13T18:50:10.157Z,11.43
2018-06-13T18:56:23.708Z,13.03
2018-06-13T18:58:54.301Z,10.23
2018-06-13T19:01:25.896Z,10.67
2018-06-13T19:03:56.155Z,10.10
2018-06-13T19:06:48.727Z,9.27
2018-06-13T19:09:19.049Z,9.37
2018-06-13T19:14:51.895Z,11.87
2018-06-13T19:17:22.435Z,8.03
2018-06-13T19:19:53.418Z,8.70
2018-06-13T19:22:23.570Z,9.70
2018-06-13T19:28:00.514Z,14.97
2018-06-13T19:30:31.176Z,10.10
2018-06-13T19:36:11.672Z,9.73
2018-06-13T19:38:42.260Z,7.93
2018-06-13T19:41:12.584Z,9.97
2018-06-13T19:43:44.451Z,11.27
2018-06-13T19:46:14.563Z,9.83
2018-06-13T19:48:54.170Z,9.67
2018-06-13T19:58:25.531Z,16.43
2018-06-13T20:00:55.729Z,9.70
2018-06-13T20:03:31.622Z,9.97
2018-06-13T20:06:01.783Z,7.77
2018-06-13T20:08:32.056Z,10.80
2018-06-13T20:11:03.063Z,11.27
2018-06-13T20:13:55.108Z,10.33
2018-06-13T20:16:52.380Z,9.43
2018-06-13T20:19:27.583Z,10.47
2018-06-13T20:21:59.210Z,8.50
2018-06-13T20:24:30.092Z,11.47
2018-06-13T20:27:06.034Z,10.70
2018-06-13T20:30:00.708Z,11.07
2018-06-13T20:35:41.175Z,8.73
2018-06-13T20:38:11.865Z,12.23
2018-06-13T20:40:42.160Z,11.50
2018-06-13T20:43:13.883Z,9.87
2018-06-13T20:45:44.413Z,10.83
2018-06-13T20:48:14.536Z,12.00
2018-06-13T20:50:45.077Z,9.33
2018-06-13T20:53:15.947Z,12.00
2018-06-13T20:55:46.464Z,13.57
2018-06-13T21:01:28.009Z,15.07
2018-06-13T21:03:58.559Z,13.37
2018-06-13T21:06:39.170Z,13.57
2018-06-13T21:09:11.184Z,11.50
2018-06-13T21:11:41.249Z,12.03
2018-06-13T21:14:30.412Z,12.07
2018-06-13T21:20:11.051Z,11.87
2018-06-13T21:22:49.093Z,12.73
2018-06-13T21:25:19.419Z,10.73
2018-06-13T21:27:49.696Z,14.90
2018-06-13T21:30:20.750Z,15.03
2018-06-13T21:33:17.235Z,13.03
2018-06-13T21:35:48.433Z,13.47
2018-06-13T21:39:53.557Z,12.53
2018-06-13T21:42:23.673Z,13.70
2018-06-13T21:45:03.871Z,13.07
2018-06-13T21:47:34.742Z,16.07
2018-06-13T21:50:04.988Z,16.43
2018-06-13T21:52:35.339Z,11.33
2018-06-13T22:05:02.692Z,11.37
2018-06-13T22:07:32.840Z,10.03
2018-06-13T22:10:03.720Z,9.73
2018-06-13T22:12:34.397Z,13.27
2018-06-13T22:15:04.585Z,12.23
2018-06-13T22:17:34.678Z,13.57
2018-06-13T22:20:19.089Z,13.43
2018-06-13T22:32:29.556Z,14.60
2018-06-13T22:35:00.246Z,13.27
2018-06-13T22:37:30.256Z,11.60
2018-06-13T22:43:17.649Z,13.47
2018-06-13T22:45:48.012Z,13.87
2018-06-13T22:48:19.296Z,14.60
2018-06-13T23:03:41.562Z,15.23
2018-06-13T23:06:12.146Z,13.20
2018-06-13T23:08:42.212Z,18.37
2018-06-13T23:14:22.232Z,15.77
2018-06-13T23:16:52.410Z,15.40
2018-06-13T23:19:22.544Z,12.30
2018-06-13T23:21:53.100Z,11.67
2018-06-13T23:24:24.019Z,15.87
2018-06-13T23:26:54.172Z,14.03
2018-06-13T23:29:24.379Z,15.87
2018-06-13T23:35:04.516Z,13.67
2018-06-13T23:37:35.007Z,14.37
2018-06-13T23:40:05.909Z,12.17
2018-06-13T23:42:36.465Z,8.53
2018-06-13T23:45:20.578Z,10.07
2018-06-13T23:47:50.978Z,11.73
2018-06-13T23:50:21.740Z,18.17
2018-06-13T23:52:52.207Z,14.77
